Terminal Aerodrome Forecast
Issued by NWS Wilmington, OH

Current Version | Previous Version | Graphics & Text | Print | Product List | Glossary On
Versions: 1 2 3 4 5 6 7 8 9 10 11 12 13 14 15 16 17
000
FTUS41 KILN 082100 AAA
TAFILN
TAF AMD
KILN 082149Z 0822/0918 25014G24KT P6SM VCSH SCT040 BKN060
     FM090000 26005KT P6SM SCT040
      TEMPO 0909/0912 3SM BR
     FM091500 27010KT P6SM BKN040=

USA.gov is the U.S. government's official web portal to all federal, state and local government web resources and services.